METAR Reports for Delaware

 

KDOV - Dover Afb, Delaware, USA
Distance from station: ENE 107mi, 172km
Updated: Thu, 21-Sep-2017 5:58pm EDT
Few Clouds
Few Clouds
 Wind from NNW
Wind: NNW 7 mph , 11 km/h
Temperature: 84°F , 29°C
Heat Index: 85°F , 29°C
Dew Point: 63°F , 17°C
Humidity: 48%
Barometer: 30.00 inHg , 1015.9 hPa
Clouds: Few Clouds
Visibility: 10 miles , 16 km
Cloud details: Few Clouds 14000 ft
2017/09/21 21:58 KDOV 212158Z 34006KT 10SM FEW140 29/17 A3000 RMK AO2A SLP155 T02860269 $
KGED - Georgetown, Delaware, USA
Distance from station: E 111mi, 179km
Updated: Thu, 21-Sep-2017 6:54pm EDT
Clear
Clear
 Wind from calm
Wind: Calm
Temperature: 75°F , 24°C
Dew Point: 66°F , 19°C
Humidity: 74%
Barometer: 30.01 inHg , 1016.3 hPa
Clouds: Clear
Visibility: 10 miles , 16 km
2017/09/21 22:54 KGED 212254Z AUTO 00000KT 10SM CLR 24/19 A3001 RMK AO2 SLP163 T02390194 $
KILG - Wilmington, Delaware, USA
Distance from station: ENE 114mi, 183km
Updated: Thu, 21-Sep-2017 6:51pm EDT
Clear
Clear
 Wind from NNW
Wind: NNW 6 mph , 9 km/h
Temperature: 79°F , 26°C
Dew Point: 64°F , 18°C
Humidity: 61%
Barometer: 30.01 inHg , 1016.3 hPa
Clouds: Clear
Visibility: 10 miles , 16 km
2017/09/21 22:51 KILG 212251Z 33005KT 10SM CLR 26/18 A3001 RMK AO2 SLP161 T02610183